Time;durP1;ratioP1;P1;durP2;ratioP2;P2;SDS_P1;SDS_P2;PMS_P1;PMS_P2;Temp;Humidity;BMP_temperature;BMP_pressure;BME280_temperature;BME280_humidity;BME280_pressure;Samples;Min_cycle;Max_cycle;Signal;HPM_P1;HPM_P2
2023/07/18 00:02:26;;;;;;;23.15;14.13;;;;;;;28.30;52.16;95448.56;4967842;28;20088;-79
2023/07/18 00:04:54;;;;;;;21.02;13.95;;;;;;;27.83;52.11;95364.91;4969574;28;20037;-79
2023/07/18 00:07:20;;;;;;;20.15;13.32;;;;;;;28.18;52.11;95418.91;4968087;28;20034;-79
2023/07/18 00:09:45;;;;;;;18.70;13.48;;;;;;;28.32;51.81;95443.53;4968021;28;20040;-79
2023/07/18 00:12:11;;;;;;;17.75;12.88;;;;;;;28.14;51.66;95423.53;4967776;28;20065;-79
2023/07/18 00:14:36;;;;;;;19.60;13.00;;;;;;;28.32;51.37;95454.44;4967837;28;20085;-79
2023/07/18 00:17:02;;;;;;;20.30;13.82;;;;;;;27.93;51.15;95394.16;4968089;28;20550;-79
2023/07/18 00:19:29;;;;;;;15.07;12.55;;;;;;;28.02;51.19;95421.09;4969314;28;20410;-79
2023/07/18 00:21:55;;;;;;;20.13;12.50;;;;;;;28.16;51.10;95436.78;4969345;28;20111;-79
2023/07/18 00:24:20;;;;;;;21.02;12.23;;;;;;;28.14;50.09;95437.16;4967935;28;20027;-79
2023/07/18 00:26:46;;;;;;;14.98;12.05;;;;;;;28.21;49.66;95431.78;4968059;28;20100;-79
2023/07/18 00:29:11;;;;;;;18.60;12.35;;;;;;;27.96;49.84;95396.16;4967823;28;20082;-79
2023/07/18 00:31:36;;;;;;;21.85;11.55;;;;;;;28.21;49.78;95439.97;4968942;28;20077;-79
2023/07/18 00:34:03;;;;;;;14.13;11.70;;;;;;;28.08;48.89;95414.13;4967690;28;20030;-79
2023/07/18 00:36:29;;;;;;;16.52;11.45;;;;;;;28.21;48.48;95442.69;4968990;28;20117;-79
2023/07/18 00:38:54;;;;;;;15.77;10.60;;;;;;;28.11;48.49;95428.94;4967817;28;20557;-79
2023/07/18 00:41:20;;;;;;;18.35;11.32;;;;;;;28.24;48.31;95443.88;4967511;28;20122;-79
2023/07/18 00:43:45;;;;;;;19.90;12.05;;;;;;;28.12;48.01;95425.06;4951545;28;20027;-79
2023/07/18 00:46:13;;;;;;;14.30;11.30;;;;;;;28.20;48.34;95435.69;5000124;28;20042;-79
2023/07/18 00:48:39;;;;;;;16.33;11.18;;;;;;;28.14;48.22;95425.47;4967829;28;20035;-79
2023/07/18 00:51:04;;;;;;;13.15;10.38;;;;;;;27.82;48.39;95371.53;4967631;28;20516;-79
2023/07/18 00:53:32;;;;;;;13.80;11.38;;;;;;;28.08;48.28;95425.03;4968578;28;20574;-79
2023/07/18 00:55:58;;;;;;;16.35;10.65;;;;;;;27.90;48.65;95391.44;4968913;28;20038;-79
2023/07/18 00:58:24;;;;;;;15.40;11.20;;;;;;;28.07;48.90;95419.97;4969070;28;20457;-79
2023/07/18 01:00:50;;;;;;;17.17;11.80;;;;;;;28.03;48.79;95404.38;4967428;28;20038;-79
2023/07/18 01:03:16;;;;;;;18.75;11.48;;;;;;;27.85;48.61;95386.31;4968577;28;20039;-79
2023/07/18 01:05:41;;;;;;;16.73;11.73;;;;;;;28.01;48.79;95414.09;4967217;28;20050;-79
2023/07/18 01:08:07;;;;;;;17.33;11.90;;;;;;;27.86;48.68;95404.25;4968468;28;20050;-79
2023/07/18 01:10:32;;;;;;;15.75;11.23;;;;;;;27.86;48.46;95399.56;4967219;28;20570;-79
2023/07/18 01:13:00;;;;;;;15.40;11.00;;;;;;;27.85;48.61;95406.19;4967088;28;20059;-79
2023/07/18 01:15:30;;;;;;;16.90;11.15;;;;;;;27.93;48.99;95410.53;4969853;28;20168;-79
2023/07/18 01:17:56;;;;;;;13.13;11.30;;;;;;;27.75;48.93;95389.78;4970505;28;20031;-79
2023/07/18 01:20:30;;;;;;;13.68;11.57;;;;;;;27.81;48.86;95399.16;4970600;28;20038;-79
2023/07/18 01:22:58;;;;;;;15.02;10.68;;;;;;;27.66;49.02;95376.47;4970654;28;20143;-79
2023/07/18 01:25:24;;;;;;;17.52;11.82;;;;;;;27.85;49.27;95408.91;4970688;28;20073;-79
2023/07/18 01:27:52;;;;;;;16.65;11.38;;;;;;;27.75;49.45;95403.41;4970412;28;20074;-79
2023/07/18 01:30:20;;;;;;;14.75;10.43;;;;;;;27.66;49.09;95395.53;4970719;28;20570;-79
2023/07/18 01:32:48;;;;;;;18.33;11.75;;;;;;;27.64;49.18;95398.63;4970807;28;20425;-79
2023/07/18 01:35:15;;;;;;;18.27;11.30;;;;;;;27.78;49.44;95422.47;4972096;28;20124;-79
2023/07/18 01:37:44;;;;;;;14.75;11.43;;;;;;;27.74;49.41;95421.69;4971298;28;20505;-79
2023/07/18 01:40:14;;;;;;;18.42;12.15;;;;;;;27.72;49.11;95424.00;4970320;28;20501;-79
2023/07/18 01:42:40;;;;;;;16.02;10.80;;;;;;;27.51;49.60;95410.97;4986123;28;20041;-79
2023/07/18 01:45:06;;;;;;;14.30;11.50;;;;;;;27.50;49.82;95392.25;5002972;28;20111;-79
2023/07/18 01:47:32;;;;;;;14.40;11.70;;;;;;;27.70;49.78;95428.25;4971561;28;20035;-79
2023/07/18 01:49:59;;;;;;;15.45;11.52;;;;;;;27.21;49.74;95362.06;4971326;28;20039;-79
2023/07/18 01:52:27;;;;;;;15.95;11.82;;;;;;;27.38;50.53;95392.56;4970146;28;20034;-79
2023/07/18 01:54:54;;;;;;;20.58;12.32;;;;;;;27.61;50.23;95421.19;4969978;28;20034;-79
2023/07/18 01:57:19;;;;;;;16.25;11.88;;;;;;;27.62;50.41;95424.69;4970018;28;20500;-79
2023/07/18 01:59:45;;;;;;;19.15;12.38;;;;;;;26.95;50.83;95323.31;4969701;28;20041;-79
2023/07/18 02:02:10;;;;;;;15.52;11.93;;;;;;;26.72;50.51;95297.00;4972973;28;20031;-78
2023/07/18 02:04:36;;;;;;;15.68;12.50;;;;;;;27.44;51.02;95419.06;4971526;28;20026;-78
2023/07/18 02:07:02;;;;;;;17.60;13.02;;;;;;;26.79;51.22;95332.44;4971315;28;20035;-78
2023/07/18 02:09:28;;;;;;;18.67;11.65;;;;;;;26.98;51.19;95374.28;4971374;28;20092;-78
2023/07/18 02:11:53;;;;;;;22.45;12.35;;;;;;;27.08;51.48;95382.53;4971999;28;20066;-78
2023/07/18 02:14:20;;;;;;;15.65;12.60;;;;;;;27.30;51.24;95421.66;4971573;28;20027;-78
2023/07/18 02:16:46;;;;;;;17.17;12.63;;;;;;;27.31;51.81;95428.69;4970927;28;20478;-78
2023/07/18 02:19:12;;;;;;;20.08;12.20;;;;;;;26.93;52.27;95412.72;4971138;28;20041;-78
2023/07/18 02:21:38;;;;;;;19.38;13.65;;;;;;;26.87;52.15;95423.88;4970984;28;20406;-78
2023/07/18 02:24:04;;;;;;;19.63;11.95;;;;;;;26.79;52.07;95403.19;4971098;28;20042;-77
2023/07/18 02:26:30;;;;;;;18.17;11.98;;;;;;;27.02;51.78;95418.63;4969657;28;20038;-77
2023/07/18 02:28:55;;;;;;;18.40;14.20;;;;;;;26.64;52.19;95400.69;4972298;28;20045;-78
2023/07/18 02:31:21;;;;;;;17.48;13.52;;;;;;;26.67;51.62;95383.63;4972296;28;20030;-78
2023/07/18 02:33:47;;;;;;;23.55;12.85;;;;;;;26.51;52.00;95400.94;4972038;28;20489;-79
2023/07/18 02:36:12;;;;;;;17.45;13.68;;;;;;;26.88;52.12;95438.28;4970846;28;20122;-77
2023/07/18 02:38:38;;;;;;;21.92;13.48;;;;;;;26.50;52.67;95398.56;4972152;28;20046;-77
2023/07/18 02:41:04;;;;;;;22.75;12.95;;;;;;;26.86;52.03;95416.88;4970889;28;20039;-78
2023/07/18 02:43:29;;;;;;;26.48;14.02;;;;;;;27.12;51.73;95445.19;4971901;28;20425;-78
2023/07/18 02:45:55;;;;;;;26.83;13.52;;;;;;;27.16;51.82;95437.81;4970242;28;20042;-78
2023/07/18 02:48:20;;;;;;;27.33;12.90;;;;;;;27.13;51.92;95436.66;4970436;28;20034;-78
2023/07/18 02:50:47;;;;;;;22.27;13.32;;;;;;;27.16;51.76;95437.81;4971764;28;20092;-78
2023/07/18 02:53:13;;;;;;;16.77;13.00;;;;;;;27.02;52.04;95415.91;4972072;28;20042;-77
2023/07/18 02:55:38;;;;;;;19.88;13.65;;;;;;;26.88;52.62;95425.47;4972008;28;20042;-78
2023/07/18 02:58:04;;;;;;;21.13;13.98;;;;;;;26.63;53.18;95421.66;4971973;28;20061;-77
2023/07/18 03:00:31;;;;;;;21.70;13.98;;;;;;;26.98;52.82;95439.59;4970486;28;20046;-77
2023/07/18 03:02:56;;;;;;;22.63;14.55;;;;;;;26.87;52.95;95413.00;4970630;28;20035;-77
2023/07/18 03:05:22;;;;;;;18.13;14.50;;;;;;;26.74;53.25;95410.91;4969871;28;20084;-78
2023/07/18 03:07:48;;;;;;;19.70;14.15;;;;;;;27.04;52.88;95457.94;4970119;28;20042;-77
2023/07/18 03:10:15;;;;;;;21.65;14.45;;;;;;;26.81;53.00;95411.00;4971392;28;20421;-77
2023/07/18 03:12:41;;;;;;;19.45;14.27;;;;;;;26.96;52.69;95441.91;4970225;28;20509;-78
2023/07/18 03:15:09;;;;;;;24.17;14.55;;;;;;;26.80;52.92;95421.09;4972424;28;20501;-77
2023/07/18 03:17:36;;;;;;;24.17;14.73;;;;;;;26.61;53.21;95385.13;4972384;28;20390;-78
2023/07/18 03:20:11;;;;;;;24.00;14.90;;;;;;;26.59;52.68;95380.03;4971827;28;20156;-77
2023/07/18 03:22:36;;;;;;;19.05;13.95;;;;;;;26.96;52.80;95420.13;4970393;28;20058;-77
2023/07/18 03:25:07;;;;;;;28.33;14.88;;;;;;;27.18;52.55;95447.19;4971863;28;20113;-77
2023/07/18 03:27:32;;;;;;;20.10;13.70;;;;;;;27.21;52.38;95440.22;4971513;28;20031;-77
2023/07/18 03:29:58;;;;;;;21.23;14.55;;;;;;;27.11;52.38;95430.00;4971348;28;20331;-78
2023/07/18 03:32:24;;;;;;;22.90;14.57;;;;;;;27.12;52.51;95434.31;4971621;28;20035;-77
2023/07/18 03:34:50;;;;;;;17.02;14.10;;;;;;;26.84;53.07;95392.00;4971153;28;20042;-77
2023/07/18 03:37:15;;;;;;;21.92;14.88;;;;;;;27.20;52.78;95449.56;4969365;28;20473;-78
2023/07/18 03:39:41;;;;;;;18.52;14.00;;;;;;;27.10;52.75;95434.66;4969642;28;20117;-78
2023/07/18 03:42:06;;;;;;;20.95;14.10;;;;;;;27.18;52.83;95460.03;4969610;28;20173;-77
2023/07/18 03:44:32;;;;;;;20.00;14.82;;;;;;;26.91;53.06;95432.13;4969377;28;20038;-77
2023/07/18 03:46:57;;;;;;;21.92;14.80;;;;;;;27.10;53.49;95467.34;4969475;28;20125;-77
2023/07/18 03:49:23;;;;;;;26.60;15.32;;;;;;;26.85;53.17;95444.47;4969063;28;20453;-78
2023/07/18 03:51:48;;;;;;;20.15;14.20;;;;;;;26.98;53.08;95467.59;4969372;28;20497;-77
2023/07/18 03:54:14;;;;;;;21.15;15.10;;;;;;;26.60;54.16;95463.22;4969707;28;20042;-78
2023/07/18 03:56:40;;;;;;;22.48;16.00;;;;;;;26.24;54.44;95433.94;4969680;28;20138;-78
2023/07/18 03:59:05;;;;;;;20.90;15.93;;;;;;;26.49;54.42;95451.38;4969483;28;20130;-77
2023/07/18 04:01:30;;;;;;;23.13;16.02;;;;;;;26.59;54.24;95486.13;4970893;28;20026;-78
2023/07/18 04:03:57;;;;;;;26.42;16.30;;;;;;;26.67;53.74;95476.91;4969693;28;20037;-77
2023/07/18 04:06:22;;;;;;;21.52;16.08;;;;;;;26.76;53.91;95476.63;4970855;28;20427;-78
2023/07/18 04:08:48;;;;;;;21.95;16.02;;;;;;;26.87;53.94;95483.75;4969235;28;20039;-78
2023/07/18 04:11:15;;;;;;;23.90;16.20;;;;;;;27.00;54.00;95492.50;4970712;28;20394;-77
2023/07/18 04:13:40;;;;;;;25.30;17.00;;;;;;;26.86;54.01;95482.19;4969976;28;20085;-78
2023/07/18 04:16:07;;;;;;;24.73;16.98;;;;;;;26.88;53.74;95474.44;4968784;28;20067;-77
2023/07/18 04:18:34;;;;;;;25.45;17.20;;;;;;;26.98;53.82;95489.38;4968737;28;20058;-77
2023/07/18 04:21:01;;;;;;;21.75;16.00;;;;;;;26.87;54.04;95478.31;4969085;28;20039;-77
2023/07/18 04:23:27;;;;;;;26.52;17.33;;;;;;;26.85;54.08;95464.28;4968843;28;20414;-77
2023/07/18 04:26:00;;;;;;;24.05;16.63;;;;;;;26.99;53.96;95485.50;4970104;28;20045;-77
2023/07/18 04:28:32;;;;;;;20.33;16.63;;;;;;;26.95;53.83;95472.97;4953175;28;20056;-78
2023/07/18 04:30:58;;;;;;;22.10;16.42;;;;;;;26.87;53.75;95461.97;5001343;28;20039;-78
2023/07/18 04:33:24;;;;;;;24.27;17.05;;;;;;;26.97;54.11;95457.84;5001861;28;20035;-78
2023/07/18 04:35:50;;;;;;;23.08;17.27;;;;;;;27.02;54.08;95484.75;4970947;28;20096;-78
2023/07/18 04:38:16;;;;;;;22.10;16.42;;;;;;;27.06;53.71;95488.31;4970183;28;20416;-78
2023/07/18 04:40:42;;;;;;;31.85;16.83;;;;;;;26.85;54.25;95447.97;4970772;28;20034;-78
2023/07/18 04:43:08;;;;;;;21.77;16.48;;;;;;;27.09;54.42;95475.88;4969155;28;20460;-78
2023/07/18 04:45:41;;;;;;;22.67;14.60;;;;;;;27.00;54.29;95456.34;4952744;28;20039;-78
2023/07/18 04:48:06;;;;;;;26.73;17.02;;;;;;;26.88;54.20;95436.34;4969239;28;20508;-78
2023/07/18 04:50:32;;;;;;;24.67;16.98;;;;;;;26.58;54.13;95457.34;4969892;28;20047;-78
2023/07/18 04:52:57;;;;;;;22.60;16.80;;;;;;;26.68;54.17;95472.25;4970141;28;20043;-78
2023/07/18 04:55:23;;;;;;;28.90;18.05;;;;;;;26.74;54.00;95470.75;4969182;28;20035;-78
2023/07/18 04:57:49;;;;;;;23.08;18.08;;;;;;;26.62;54.42;95471.78;4969942;28;20066;-78
2023/07/18 05:00:14;;;;;;;24.27;16.58;;;;;;;26.61;54.02;95453.91;5001069;28;20078;-78
2023/07/18 05:02:40;;;;;;;29.52;16.77;;;;;;;26.52;54.62;95466.97;4970258;28;20041;-78
2023/07/18 05:05:06;;;;;;;23.85;17.15;;;;;;;26.65;54.05;95467.53;4968418;28;20465;-77
2023/07/18 05:07:32;;;;;;;24.65;17.17;;;;;;;26.31;54.51;95451.16;4967852;28;20068;-78
2023/07/18 05:09:57;;;;;;;27.88;15.80;;;;;;;26.58;53.91;95445.69;4994800;28;20036;-78
2023/07/18 05:12:23;;;;;;;27.88;15.90;;;;;;;26.70;53.01;95445.47;5070496;28;20045;-77
2023/07/18 05:14:48;;;;;;;19.15;14.27;;;;;;;26.45;51.92;95461.44;5069361;28;20032;-78
2023/07/18 05:17:13;;;;;;;21.60;14.65;;;;;;;26.28;51.69;95402.94;5069665;28;20028;-78
2023/07/18 05:19:39;;;;;;;21.73;14.90;;;;;;;26.69;51.30;95468.38;5069555;28;20039;-78
2023/07/18 05:22:04;;;;;;;19.08;13.77;;;;;;;26.58;51.26;95462.78;5070983;28;20036;-78
2023/07/18 05:24:30;;;;;;;19.35;13.93;;;;;;;26.56;50.93;95456.13;5071295;28;20024;-78
2023/07/18 05:26:55;;;;;;;22.80;15.15;;;;;;;26.99;50.71;95462.94;5070408;28;20028;-78
2023/07/18 05:29:21;;;;;;;26.13;15.27;;;;;;;27.05;51.18;95466.88;5068682;28;20024;-78
2023/07/18 05:31:46;;;;;;;23.85;16.65;;;;;;;27.04;51.15;95438.88;5070775;28;20568;-78
2023/07/18 05:34:12;;;;;;;25.65;16.17;;;;;;;27.16;51.07;95443.28;5070556;28;20040;-78
2023/07/18 05:36:37;;;;;;;23.25;15.57;;;;;;;27.10;51.02;95417.53;5068694;28;20044;-78
2023/07/18 05:39:02;;;;;;;26.77;16.15;;;;;;;27.40;50.79;95448.19;5068969;28;20472;-78
2023/07/18 05:41:28;;;;;;;25.27;15.73;;;;;;;27.57;50.95;95474.84;5070928;28;20060;-77
2023/07/18 05:43:53;;;;;;;24.75;17.30;;;;;;;27.41;50.66;95452.50;5103287;28;20535;-78
2023/07/18 05:46:19;;;;;;;30.50;18.52;;;;;;;27.47;51.56;95461.88;5051864;28;20215;-78
2023/07/18 05:48:44;;;;;;;31.73;18.40;;;;;;;27.19;51.55;95394.31;5101163;28;20434;-78
2023/07/18 05:51:10;;;;;;;29.83;18.05;;;;;;;27.66;50.99;95455.47;5030458;28;20121;-78
2023/07/18 05:53:35;;;;;;;33.95;20.05;;;;;;;27.68;51.26;95445.00;4987302;28;20132;-78
2023/07/18 05:56:01;;;;;;;26.48;19.67;;;;;;;27.82;52.13;95475.09;4987986;28;20065;-78
2023/07/18 05:58:26;;;;;;;36.42;19.52;;;;;;;27.79;51.59;95448.56;4986934;28;20045;-78
2023/07/18 06:00:51;;;;;;;29.27;19.33;;;;;;;27.87;51.19;95443.97;4990291;28;20049;-78
2023/07/18 06:03:17;;;;;;;32.55;18.98;;;;;;;27.70;51.74;95425.53;5068292;28;20040;-78
2023/07/18 06:05:43;;;;;;;31.90;18.63;;;;;;;27.96;52.28;95452.59;5072944;28;20035;-78
2023/07/18 06:08:09;;;;;;;29.45;19.95;;;;;;;28.13;52.08;95462.88;5074339;28;20036;-78
2023/07/18 06:10:35;;;;;;;33.30;19.77;;;;;;;28.10;51.63;95462.81;5072134;28;20032;-78
2023/07/18 06:13:00;;;;;;;36.95;18.98;;;;;;;28.11;51.46;95456.22;5073609;28;20414;-78
2023/07/18 06:15:26;;;;;;;30.02;20.20;;;;;;;27.46;51.29;95356.06;5049486;28;20027;-78
2023/07/18 06:17:51;;;;;;;36.00;19.67;;;;;;;27.83;51.15;95405.81;4991199;28;20045;-77
2023/07/18 06:20:17;;;;;;;46.65;19.50;;;;;;;28.27;50.68;95465.72;5022822;28;20030;-77
2023/07/18 06:22:44;;;;;;;42.05;19.73;;;;;;;28.09;51.29;95469.44;4989812;28;20527;-77
2023/07/18 06:25:11;;;;;;;30.15;20.55;;;;;;;27.76;52.16;95454.78;4990609;28;20080;-77
2023/07/18 06:27:37;;;;;;;38.58;20.23;;;;;;;27.82;51.21;95420.59;4989132;28;20077;-77
2023/07/18 06:30:03;;;;;;;38.58;18.80;;;;;;;28.23;50.56;95459.44;4990773;28;20042;-78
2023/07/18 06:32:29;;;;;;;38.92;20.33;;;;;;;28.03;51.42;95453.44;4993185;28;20448;-78
2023/07/18 06:34:55;;;;;;;31.10;19.23;;;;;;;28.24;51.24;95450.09;5073421;28;20041;-77
2023/07/18 06:37:20;;;;;;;41.00;21.40;;;;;;;28.27;51.06;95448.56;5071457;28;20044;-77
2023/07/18 06:39:50;;;;;;;33.42;20.40;;;;;;;28.15;51.88;95467.94;5073454;28;20085;-77
2023/07/18 06:42:15;;;;;;;33.58;21.83;;;;;;;28.07;51.75;95453.47;5056020;28;20043;-78
2023/07/18 06:44:41;;;;;;;33.20;20.80;;;;;;;27.85;51.31;95440.81;5072241;28;20029;-78
2023/07/18 06:47:07;;;;;;;31.75;21.27;;;;;;;27.87;51.60;95433.84;5074006;28;20493;-78
2023/07/18 06:49:32;;;;;;;33.95;20.60;;;;;;;28.06;51.78;95459.31;5073570;28;20032;-78
2023/07/18 06:51:58;;;;;;;30.70;20.88;;;;;;;28.12;51.65;95465.97;5073840;28;20044;-78
2023/07/18 06:54:24;;;;;;;37.55;20.55;;;;;;;28.27;51.05;95454.03;5073422;28;20035;-78
2023/07/18 06:56:49;;;;;;;43.28;20.38;;;;;;;28.24;51.49;95447.38;5105733;28;20094;-78
2023/07/18 06:59:15;;;;;;;30.90;19.38;;;;;;;27.86;51.91;95432.28;5071763;28;20113;-78
2023/07/18 07:01:42;;;;;;;35.83;19.50;;;;;;;27.40;51.32;95352.09;5050212;28;20034;-78
2023/07/18 07:04:08;;;;;;;37.20;19.98;;;;;;;28.36;51.04;95474.34;4971069;28;20038;-78
2023/07/18 07:06:33;;;;;;;25.98;18.23;;;;;;;28.28;51.00;95469.22;4969264;28;20038;-78
2023/07/18 07:08:59;;;;;;;29.58;18.67;;;;;;;28.10;51.61;95446.47;4969151;28;20041;-78
2023/07/18 07:11:27;;;;;;;29.85;19.02;;;;;;;28.31;50.64;95450.16;4971000;28;20467;-78
2023/07/18 07:13:53;;;;;;;34.80;18.40;;;;;;;28.08;50.88;95397.00;4968756;28;20137;-78
2023/07/18 07:16:18;;;;;;;25.73;17.85;;;;;;;28.67;50.72;95470.25;4973532;28;20232;-78
2023/07/18 07:18:44;;;;;;;25.83;18.02;;;;;;;28.47;50.33;95455.31;4978967;28;20050;-79
2023/07/18 07:21:10;;;;;;;43.47;21.92;;;;;;;28.66;50.63;95476.88;4973114;28;20034;-78
2023/07/18 07:23:35;;;;;;;33.08;17.77;;;;;;;28.86;50.13;95473.84;5009838;28;20099;-78
2023/07/18 07:26:01;;;;;;;26.05;18.40;;;;;;;28.78;49.68;95446.53;4974742;28;20113;-78
2023/07/18 07:28:26;;;;;;;25.88;17.88;;;;;;;28.75;49.99;95473.78;5071629;28;20555;-78
2023/07/18 07:30:52;;;;;;;33.90;18.63;;;;;;;28.48;50.18;95423.34;4998348;28;20041;-78
2023/07/18 07:33:18;;;;;;;24.00;17.60;;;;;;;28.75;49.93;95458.22;4988782;28;20038;-78
2023/07/18 07:35:44;;;;;;;26.73;17.23;;;;;;;28.72;49.74;95442.56;4969680;28;20038;-78
2023/07/18 07:38:10;;;;;;;32.78;17.63;;;;;;;28.74;49.54;95428.56;4969420;28;20516;-78
2023/07/18 07:40:35;;;;;;;25.55;17.70;;;;;;;28.79;50.17;95456.28;4969523;28;20440;-78
2023/07/18 07:43:01;;;;;;;25.33;16.63;;;;;;;28.76;50.41;95437.94;4969731;28;20039;-78
2023/07/18 07:45:26;;;;;;;26.58;18.25;;;;;;;28.95;49.71;95439.56;4970913;28;20031;-78
2023/07/18 07:47:52;;;;;;;28.83;18.20;;;;;;;28.89;49.43;95443.84;4970783;28;20509;-78
2023/07/18 07:50:18;;;;;;;33.17;17.35;;;;;;;29.08;49.30;95454.44;4968789;28;20043;-78
2023/07/18 07:52:43;;;;;;;29.15;18.58;;;;;;;28.62;49.96;95407.03;4970056;28;20501;-78
2023/07/18 07:55:12;;;;;;;31.30;18.80;;;;;;;28.89;50.53;95460.22;4969366;28;20116;-78
2023/07/18 07:57:38;;;;;;;26.67;19.52;;;;;;;28.58;50.70;95393.41;4970406;28;20046;-78
2023/07/18 08:00:04;;;;;;;35.15;18.55;;;;;;;28.98;49.87;95418.94;4969881;28;20050;-78
2023/07/18 08:02:30;;;;;;;34.08;18.40;;;;;;;29.36;49.58;95459.25;4968634;28;20042;-78
2023/07/18 08:04:55;;;;;;;27.25;18.35;;;;;;;29.21;48.89;95410.41;4968166;28;20129;-78
2023/07/18 08:07:20;;;;;;;29.08;18.33;;;;;;;29.34;48.92;95417.03;4970047;28;20046;-79
2023/07/18 08:09:46;;;;;;;32.58;18.80;;;;;;;29.43;48.80;95415.53;4971130;28;20540;-78
2023/07/18 08:12:12;;;;;;;23.30;16.40;;;;;;;29.70;48.08;95456.94;4969034;28;20043;-78
2023/07/18 08:14:38;;;;;;;23.30;17.13;;;;;;;29.65;47.83;95418.28;4968816;28;20090;-78
2023/07/18 08:17:04;;;;;;;23.15;16.95;;;;;;;29.58;48.06;95423.75;4969044;28;20057;-78
2023/07/18 08:19:32;;;;;;;22.27;16.30;;;;;;;29.66;48.23;95434.28;4969213;28;20041;-78
2023/07/18 08:21:58;;;;;;;22.92;15.85;;;;;;;29.83;47.58;95454.63;4970072;28;20035;-78
2023/07/18 08:24:23;;;;;;;26.00;16.15;;;;;;;29.86;47.86;95442.88;4970714;28;20030;-78
2023/07/18 08:26:48;;;;;;;30.65;17.38;;;;;;;29.67;47.25;95411.25;4968611;28;20047;-78
2023/07/18 08:29:14;;;;;;;28.17;16.55;;;;;;;29.87;46.89;95411.63;4969099;28;20473;-78
2023/07/18 08:31:41;;;;;;;23.85;16.92;;;;;;;29.93;47.12;95431.97;4970150;28;20070;-78
2023/07/18 08:34:06;;;;;;;25.95;16.27;;;;;;;29.81;48.04;95440.56;4970615;28;20038;-78
2023/07/18 08:36:35;;;;;;;23.88;17.65;;;;;;;29.82;48.08;95455.78;4968383;28;20047;-78
2023/07/18 08:39:02;;;;;;;26.48;17.15;;;;;;;29.83;48.14;95416.34;4968773;28;20053;-78
2023/07/18 08:41:28;;;;;;;26.63;16.90;;;;;;;29.89;48.29;95442.13;4969803;28;20088;-78
2023/07/18 08:43:54;;;;;;;24.45;18.13;;;;;;;29.93;48.38;95445.63;4969136;28;20070;-78
2023/07/18 08:46:20;;;;;;;27.05;17.13;;;;;;;29.95;47.69;95423.38;4967028;28;20035;-78
2023/07/18 08:48:47;;;;;;;23.23;17.35;;;;;;;30.33;47.00;95443.66;4967785;28;20061;-78
2023/07/18 08:51:14;;;;;;;20.92;17.08;;;;;;;29.84;47.66;95415.94;4968626;28;20035;-78
2023/07/18 08:53:39;;;;;;;24.88;16.85;;;;;;;30.14;48.30;95421.00;4970456;28;20043;-78
2023/07/18 08:56:08;;;;;;;24.60;16.40;;;;;;;30.41;47.74;95437.00;4988322;28;20038;-79
2023/07/18 08:58:36;;;;;;;26.65;17.63;;;;;;;30.43;47.34;95440.13;4986997;28;20034;-80
2023/07/18 09:01:02;;;;;;;26.35;17.63;;;;;;;30.42;46.44;95444.81;4987044;28;20038;-80
2023/07/18 09:03:27;;;;;;;23.75;16.05;;;;;;;30.37;46.56;95455.34;4990419;28;20027;-78
2023/07/18 09:05:53;;;;;;;24.70;15.15;;;;;;;29.94;46.28;95414.41;5068277;28;20052;-80
2023/07/18 09:08:19;;;;;;;24.98;15.20;;;;;;;30.23;46.27;95426.06;5070284;28;20036;-80
2023/07/18 09:10:47;;;;;;;23.33;16.27;;;;;;;30.36;46.68;95438.19;5070047;28;20033;-78
2023/07/18 09:13:12;;;;;;;24.52;15.43;;;;;;;30.36;46.54;95440.13;5068645;28;20056;-78
2023/07/18 09:15:38;;;;;;;18.98;14.77;;;;;;;30.49;45.77;95433.06;5068847;28;20040;-78
2023/07/18 09:18:05;;;;;;;17.70;14.50;;;;;;;30.54;45.43;95430.72;5068554;28;20040;-78
2023/07/18 09:20:31;;;;;;;25.35;14.65;;;;;;;30.74;45.17;95428.31;5068799;28;20094;-78
2023/07/18 09:22:58;;;;;;;27.13;15.68;;;;;;;31.00;45.57;95427.03;5068692;28;20033;-78
2023/07/18 09:25:27;;;;;;;20.48;14.65;;;;;;;30.92;45.57;95414.53;5069834;28;20474;-78
2023/07/18 09:27:53;;;;;;;26.40;15.88;;;;;;;30.88;44.52;95386.41;5068299;28;20029;-78
2023/07/18 09:30:34;;;;;;;26.85;14.68;;;;;;;31.12;43.99;95395.69;5068336;28;20074;-78
2023/07/18 09:33:03;;;;;;;31.35;13.70;;;;;;;31.32;43.49;95416.72;5069757;28;20024;-78
2023/07/18 09:35:28;;;;;;;18.88;14.23;;;;;;;31.05;43.65;95385.50;5071947;28;20119;-78
2023/07/18 09:37:55;;;;;;;20.80;14.77;;;;;;;31.17;44.16;95425.41;5072531;28;20136;-78
2023/07/18 09:40:20;;;;;;;23.70;14.93;;;;;;;30.98;44.66;95382.81;5072494;28;20036;-78
2023/07/18 09:42:47;;;;;;;28.23;14.93;;;;;;;31.26;44.24;95415.56;5074181;28;20043;-78
2023/07/18 09:45:14;;;;;;;19.33;14.30;;;;;;;30.99;45.01;95382.41;5072237;28;20090;-78
2023/07/18 09:47:41;;;;;;;19.55;14.05;;;;;;;30.77;44.01;95359.06;5072056;28;20036;-78
2023/07/18 09:50:12;;;;;;;24.52;14.32;;;;;;;30.87;44.54;95380.16;5071985;28;20812;-78
2023/07/18 09:52:51;;;;;;;24.73;15.40;;;;;;;31.69;44.04;95416.09;5073630;28;20469;-78
2023/07/18 09:55:27;;;;;;;20.55;14.38;;;;;;;32.22;42.75;95411.34;5072708;28;20187;-78
2023/07/18 09:57:56;;;;;;;19.17;13.63;;;;;;;32.87;41.25;95402.00;5071568;28;20033;-78
2023/07/18 10:00:25;;;;;;;23.73;12.57;;;;;;;33.48;39.66;95380.00;5071403;28;20052;-78
2023/07/18 10:02:54;;;;;;;17.73;12.35;;;;;;;34.44;37.34;95390.16;5071717;28;20082;-78
2023/07/18 10:05:20;;;;;;;21.13;11.63;;;;;;;34.99;36.21;95378.44;5071797;28;20028;-79
2023/07/18 10:07:46;;;;;;;19.55;9.90;;;;;;;34.57;35.79;95395.81;5071209;28;20033;-79
2023/07/18 10:10:13;;;;;;;16.13;10.23;;;;;;;34.72;36.29;95386.88;5073464;28;20065;-79
2023/07/18 10:12:58;;;;;;;17.33;11.00;;;;;;;35.38;34.96;95393.38;5071039;28;20057;-79
2023/07/18 10:15:24;;;;;;;16.17;9.40;;;;;;;35.11;33.61;95380.53;5071638;28;20119;-78
2023/07/18 10:17:50;;;;;;;18.75;9.48;;;;;;;35.58;34.30;95388.56;5072410;28;20500;-79
2023/07/18 10:20:32;;;;;;;17.58;9.15;;;;;;;36.20;33.24;95400.47;5072139;28;20024;-78
2023/07/18 10:22:59;;;;;;;10.32;9.13;;;;;;;35.64;32.71;95353.72;5052093;28;20493;-79
2023/07/18 10:25:26;;;;;;;11.45;8.85;;;;;;;35.22;32.99;95367.34;4990947;28;20516;-79
2023/07/18 10:27:52;;;;;;;13.13;8.82;;;;;;;35.60;33.09;95388.91;4990994;28;20461;-80
2023/07/18 10:30:22;;;;;;;12.88;8.93;;;;;;;35.44;33.45;95369.59;4989495;28;20099;-79
2023/07/18 10:32:51;;;;;;;13.73;8.80;;;;;;;36.53;31.72;95392.91;4991320;28;20065;-79
2023/07/18 10:35:18;;;;;;;16.45;9.00;;;;;;;36.41;31.48;95388.88;4988912;28;20066;-79
2023/07/18 10:37:49;;;;;;;14.32;7.97;;;;;;;36.31;31.23;95387.97;4990053;28;20034;-79
2023/07/18 10:40:36;;;;;;;17.08;8.25;;;;;;;36.14;31.69;95386.41;4989490;28;20038;-79
2023/07/18 10:43:04;;;;;;;18.48;8.15;;;;;;;35.77;32.19;95381.44;4989161;28;20091;-79
2023/07/18 10:45:35;;;;;;;17.90;7.63;;;;;;;36.08;31.39;95379.88;4989349;28;20123;-79
2023/07/18 10:48:18;;;;;;;11.98;6.10;;;;;;;35.94;31.23;95378.22;4988099;28;20041;-79
2023/07/18 10:50:45;;;;;;;12.20;6.78;;;;;;;36.63;29.91;95395.34;4988973;28;20484;-79
2023/07/18 10:53:16;;;;;;;10.95;7.03;;;;;;;36.68;30.16;95392.09;4990596;28;20038;-79
2023/07/18 10:55:41;;;;;;;14.52;6.82;;;;;;;35.86;31.43;95376.84;4991107;28;20099;-79
2023/07/18 10:58:15;;;;;;;12.93;5.68;;;;;;;35.50;31.18;95367.88;4988996;28;20038;-79
2023/07/18 11:00:41;;;;;;;12.80;5.80;;;;;;;36.16;30.72;95397.78;4988995;28;20026;-79
2023/07/18 11:03:17;;;;;;;8.75;5.05;;;;;;;35.77;28.88;95381.44;5021992;28;20041;-79
2023/07/18 11:05:46;;;;;;;6.88;4.63;;;;;;;36.08;28.00;95390.13;4990290;28;20028;-79
2023/07/18 11:08:25;;;;;;;9.25;5.05;;;;;;;36.47;26.67;95378.09;4990226;28;20027;-79
2023/07/18 11:10:59;;;;;;;9.00;4.63;;;;;;;36.48;25.22;95365.78;4988971;28;20037;-79
2023/07/18 11:13:31;;;;;;;9.02;4.35;;;;;;;36.86;25.80;95391.56;4981937;28;20073;-79
2023/07/18 11:16:00;;;;;;;8.88;4.47;;;;;;;36.87;25.09;95387.59;4982075;28;20482;-79
2023/07/18 11:18:30;;;;;;;9.88;3.90;;;;;;;37.36;23.30;95381.84;4950468;29;20031;-79